Time;durP1;ratioP1;P1;durP2;ratioP2;P2;SDS_P1;SDS_P2;PMS_P1;PMS_P2;Temp;Humidity;BMP_temperature;BMP_pressure;BME280_temperature;BME280_humidity;BME280_pressure;Samples;Min_cycle;Max_cycle;Signal;HPM_P1;HPM_P2
2022/07/09 00:01:37;;;;;;;6.05;3.47;;;;;;;18.85;71.44;95368.22;5087310;28;20077;-81
2022/07/09 00:04:03;;;;;;;4.55;3.50;;;;;;;18.72;72.24;95366.50;5105416;28;20549;-81
2022/07/09 00:06:29;;;;;;;3.78;2.90;;;;;;;18.67;72.73;95371.81;5087518;28;20120;-80
2022/07/09 00:08:55;;;;;;;4.05;3.20;;;;;;;18.77;72.09;95374.81;5087676;28;20016;-81
2022/07/09 00:11:20;;;;;;;8.32;3.50;;;;;;;18.98;72.07;95378.06;5070247;28;20024;-82
2022/07/09 00:13:46;;;;;;;4.57;2.92;;;;;;;18.95;71.54;95373.94;5087355;28;20098;-81
2022/07/09 00:16:11;;;;;;;4.50;2.63;;;;;;;18.82;71.10;95371.41;5104950;28;20027;-82
2022/07/09 00:18:36;;;;;;;4.45;2.95;;;;;;;18.80;71.48;95376.25;5070841;28;20015;-82
2022/07/09 00:21:02;;;;;;;3.75;2.80;;;;;;;18.84;71.17;95372.84;5070590;28;20024;-81
2022/07/09 00:23:27;;;;;;;4.38;2.63;;;;;;;18.83;70.65;95363.00;5087510;28;20046;-81
2022/07/09 00:25:53;;;;;;;4.45;2.90;;;;;;;18.68;71.23;95365.31;5105293;28;20031;-80
2022/07/09 00:28:18;;;;;;;3.30;2.53;;;;;;;18.57;71.91;95351.47;5070227;28;20024;-80
2022/07/09 00:30:44;;;;;;;4.38;2.80;;;;;;;18.61;71.79;95357.25;5070406;28;20032;-80
2022/07/09 00:33:09;;;;;;;3.72;3.00;;;;;;;18.77;71.84;95348.47;5105044;28;20024;-80
2022/07/09 00:35:35;;;;;;;4.15;2.70;;;;;;;18.79;71.97;95342.81;5105460;28;20027;-80
2022/07/09 00:38:00;;;;;;;3.72;2.90;;;;;;;18.89;71.06;95345.78;5086596;28;20512;-81
2022/07/09 00:40:26;;;;;;;3.67;3.08;;;;;;;18.84;71.07;95345.66;5070062;28;20032;-81
2022/07/09 00:42:51;;;;;;;3.40;2.90;;;;;;;18.85;71.35;95339.16;5105016;28;20039;-81
2022/07/09 00:45:17;;;;;;;3.42;2.63;;;;;;;18.81;71.38;95346.13;5086648;28;20024;-80
2022/07/09 00:47:43;;;;;;;4.03;2.83;;;;;;;18.88;70.89;95337.88;5086888;28;20023;-81
2022/07/09 00:50:08;;;;;;;3.95;2.90;;;;;;;18.84;71.18;95337.53;5070191;28;20043;-80
2022/07/09 00:52:34;;;;;;;3.28;2.50;;;;;;;18.95;70.57;95330.44;5069967;28;20024;-81
2022/07/09 00:55:00;;;;;;;4.97;2.60;;;;;;;18.87;70.78;95328.91;5086632;28;20023;-81
2022/07/09 00:57:25;;;;;;;5.07;2.67;;;;;;;18.85;70.56;95322.88;5053383;28;20077;-81
2022/07/09 00:59:51;;;;;;;3.42;2.60;;;;;;;18.88;70.43;95319.69;5086628;28;20035;-81
2022/07/09 01:02:16;;;;;;;5.65;2.80;;;;;;;18.81;70.74;95329.00;5053367;28;20047;-81
2022/07/09 01:04:41;;;;;;;2.88;2.50;;;;;;;18.51;71.80;95322.50;5069839;28;20062;-81
2022/07/09 01:07:07;;;;;;;4.30;2.78;;;;;;;18.36;71.82;95312.88;5105232;28;20035;-81
2022/07/09 01:09:32;;;;;;;4.35;2.35;;;;;;;18.34;72.26;95312.31;5104844;28;20024;-81
2022/07/09 01:11:58;;;;;;;3.47;2.80;;;;;;;18.11;72.95;95311.09;5055175;28;20027;-81
2022/07/09 01:14:23;;;;;;;4.07;2.78;;;;;;;18.35;72.26;95316.66;5108998;28;20023;-81
2022/07/09 01:16:59;;;;;;;3.28;2.38;;;;;;;18.25;72.45;95322.63;5090038;28;20036;-80
2022/07/09 01:19:26;;;;;;;3.45;2.58;;;;;;;18.28;72.12;95313.22;5074304;28;20161;-81
2022/07/09 01:21:51;;;;;;;3.10;2.53;;;;;;;18.10;72.66;95317.59;5108582;28;20660;-80
2022/07/09 01:24:17;;;;;;;3.72;2.80;;;;;;;17.93;73.72;95309.22;5108780;28;20026;-81
2022/07/09 01:26:42;;;;;;;4.07;2.60;;;;;;;17.90;73.48;95307.78;5108279;28;20027;-81
2022/07/09 01:29:08;;;;;;;2.95;2.65;;;;;;;17.78;73.29;95301.47;5073448;28;20497;-80
2022/07/09 01:31:33;;;;;;;4.47;2.78;;;;;;;17.89;73.03;95308.03;5089723;28;20052;-80
2022/07/09 01:33:58;;;;;;;3.65;2.47;;;;;;;17.75;73.81;95302.75;5108116;28;20028;-81
2022/07/09 01:36:24;;;;;;;4.47;2.63;;;;;;;17.64;73.95;95304.31;5108172;28;20440;-80
2022/07/09 01:38:49;;;;;;;2.90;2.45;;;;;;;17.70;73.14;95305.28;5089850;28;20027;-80
2022/07/09 01:41:15;;;;;;;3.45;2.80;;;;;;;17.64;73.56;95298.91;5073522;28;20096;-80
2022/07/09 01:43:40;;;;;;;3.67;2.63;;;;;;;17.65;73.51;95302.44;5108274;28;20020;-81
2022/07/09 01:46:06;;;;;;;4.63;2.75;;;;;;;17.73;73.03;95301.31;5089914;28;20027;-80
2022/07/09 01:48:34;;;;;;;3.35;2.67;;;;;;;17.54;73.34;95304.00;5089630;28;20116;-81
2022/07/09 01:50:59;;;;;;;3.65;2.63;;;;;;;17.74;73.22;95306.50;5108025;28;20099;-80
2022/07/09 01:53:24;;;;;;;3.33;2.72;;;;;;;17.91;72.62;95300.50;5108526;28;20027;-81
2022/07/09 01:55:50;;;;;;;5.50;2.50;;;;;;;17.76;72.34;95309.00;5089153;28;20572;-81
2022/07/09 01:58:15;;;;;;;4.55;2.80;;;;;;;17.82;72.59;95307.25;5108134;28;20092;-81
2022/07/09 02:00:41;;;;;;;4.50;2.90;;;;;;;18.00;72.42;95309.16;5089607;28;20028;-81
2022/07/09 02:03:06;;;;;;;3.30;2.80;;;;;;;17.87;72.23;95310.97;5108845;28;20092;-80
2022/07/09 02:05:33;;;;;;;3.67;2.38;;;;;;;17.95;71.83;95303.56;5073090;28;20101;-80
2022/07/09 02:07:59;;;;;;;4.07;2.55;;;;;;;17.93;72.48;95306.50;5091043;28;20015;-80
2022/07/09 02:10:24;;;;;;;3.17;2.63;;;;;;;17.89;71.94;95313.44;5089333;28;20460;-80
2022/07/09 02:12:49;;;;;;;2.97;2.20;;;;;;;17.98;71.67;95309.38;5072332;28;20448;-81
2022/07/09 02:15:15;;;;;;;2.60;2.25;;;;;;;18.01;71.61;95310.78;5107779;28;20518;-81
2022/07/09 02:17:40;;;;;;;4.25;2.40;;;;;;;18.03;71.51;95311.41;5089393;28;20050;-79
2022/07/09 02:20:08;;;;;;;2.95;2.50;;;;;;;18.10;71.21;95304.03;5108765;28;20027;-80
2022/07/09 02:22:34;;;;;;;4.28;2.85;;;;;;;17.97;71.00;95309.59;5089815;28;20042;-80
2022/07/09 02:24:59;;;;;;;4.00;2.50;;;;;;;18.04;71.10;95313.03;5089739;28;20019;-80
2022/07/09 02:27:25;;;;;;;4.80;2.78;;;;;;;18.09;71.51;95318.63;5108118;28;20035;-79
2022/07/09 02:29:50;;;;;;;2.83;2.28;;;;;;;18.10;70.97;95319.47;5107977;28;20024;-80
2022/07/09 02:32:16;;;;;;;2.90;2.33;;;;;;;18.09;71.24;95318.63;5089743;28;20024;-80
2022/07/09 02:34:41;;;;;;;3.83;2.50;;;;;;;18.20;71.22;95318.97;5089342;28;20053;-80
2022/07/09 02:37:07;;;;;;;3.15;2.33;;;;;;;18.21;70.50;95329.59;5107660;28;20443;-80
2022/07/09 02:39:32;;;;;;;2.60;2.30;;;;;;;18.17;71.02;95325.66;5089036;28;20440;-80
2022/07/09 02:41:58;;;;;;;3.10;2.47;;;;;;;18.20;70.31;95335.25;5072666;28;20115;-80
2022/07/09 02:44:23;;;;;;;3.95;2.20;;;;;;;18.26;69.98;95337.03;5107186;28;20054;-80
2022/07/09 02:46:49;;;;;;;3.58;2.40;;;;;;;18.16;70.59;95334.88;5072763;28;20055;-80
2022/07/09 02:49:14;;;;;;;3.00;2.45;;;;;;;17.96;71.40;95326.94;5072419;28;20028;-80
2022/07/09 02:51:40;;;;;;;3.42;2.38;;;;;;;18.02;71.38;95329.56;5089538;28;20024;-81
2022/07/09 02:54:05;;;;;;;5.10;3.08;;;;;;;17.92;71.76;95329.28;5075294;28;20020;-81
2022/07/09 02:56:31;;;;;;;4.43;2.75;;;;;;;17.90;71.65;95329.50;5075397;28;20421;-80
2022/07/09 02:58:56;;;;;;;2.85;2.38;;;;;;;17.90;71.77;95332.22;5088703;28;20035;-82
2022/07/09 03:01:22;;;;;;;3.60;3.03;;;;;;;17.85;72.26;95333.94;5072068;28;20019;-80
2022/07/09 03:03:47;;;;;;;4.18;2.85;;;;;;;17.85;72.17;95329.34;5055520;28;20044;-80
2022/07/09 03:06:13;;;;;;;4.35;3.00;;;;;;;17.83;72.59;95330.63;5088722;28;20024;-80
2022/07/09 03:08:39;;;;;;;4.47;2.90;;;;;;;17.55;73.36;95330.09;5107631;28;20027;-81
2022/07/09 03:11:06;;;;;;;3.40;2.80;;;;;;;17.51;73.77;95328.84;5071404;28;20111;-80
2022/07/09 03:13:33;;;;;;;2.88;2.47;;;;;;;17.56;73.71;95326.31;5072910;28;20045;-80
2022/07/09 03:15:58;;;;;;;3.75;2.70;;;;;;;17.50;73.54;95338.88;5071522;28;20385;-81
2022/07/09 03:18:24;;;;;;;4.72;2.70;;;;;;;17.50;73.51;95332.63;5107404;28;20399;-80
2022/07/09 03:20:50;;;;;;;4.05;2.83;;;;;;;17.37;74.37;95334.41;5071846;28;20274;-81
2022/07/09 03:23:16;;;;;;;3.97;2.60;;;;;;;17.36;74.67;95343.56;5106477;28;20397;-80
2022/07/09 03:25:41;;;;;;;5.75;2.67;;;;;;;17.48;74.56;95345.56;5088805;28;20531;-80
2022/07/09 03:28:07;;;;;;;2.90;2.60;;;;;;;17.52;74.13;95333.25;5106052;28;20027;-80
2022/07/09 03:30:32;;;;;;;3.05;2.70;;;;;;;17.54;74.14;95337.38;5089261;28;20456;-80
2022/07/09 03:32:58;;;;;;;4.70;2.70;;;;;;;17.59;73.68;95336.69;5106129;28;20028;-80
2022/07/09 03:35:23;;;;;;;3.55;2.65;;;;;;;17.49;74.12;95336.41;5106154;28;20930;-80
2022/07/09 03:37:48;;;;;;;3.15;2.67;;;;;;;17.57;73.67;95340.69;5105857;28;20024;-80
2022/07/09 03:40:14;;;;;;;3.65;2.95;;;;;;;17.45;74.55;95336.00;5106320;28;20402;-80
2022/07/09 03:42:39;;;;;;;4.85;3.00;;;;;;;17.37;74.49;95339.00;5106396;28;20402;-81
2022/07/09 03:45:05;;;;;;;4.03;3.25;;;;;;;17.41;74.82;95332.91;5087518;28;20382;-81
2022/07/09 03:47:31;;;;;;;8.93;3.15;;;;;;;17.37;75.17;95339.00;5088463;28;20413;-81
2022/07/09 03:49:56;;;;;;;5.38;3.03;;;;;;;17.39;74.64;95335.03;5105663;28;20521;-80
2022/07/09 03:52:22;;;;;;;4.38;2.90;;;;;;;17.40;74.96;95335.84;5088559;28;20397;-80
2022/07/09 03:54:47;;;;;;;5.10;3.10;;;;;;;17.58;74.16;95335.06;5105972;28;20023;-80
2022/07/09 03:57:12;;;;;;;3.53;3.00;;;;;;;17.49;74.91;95336.41;5106000;28;20020;-80
2022/07/09 03:59:38;;;;;;;3.47;3.13;;;;;;;17.50;74.49;95335.34;5087279;28;20088;-80
2022/07/09 04:02:05;;;;;;;4.40;3.08;;;;;;;17.50;74.82;95344.31;5106144;28;20024;-80
2022/07/09 04:04:30;;;;;;;3.65;3.13;;;;;;;17.47;74.35;95339.34;5106001;28;20051;-81
2022/07/09 04:06:56;;;;;;;3.38;2.95;;;;;;;17.49;74.13;95341.81;5087040;28;20046;-80
2022/07/09 04:09:22;;;;;;;4.97;3.15;;;;;;;17.52;74.15;95335.94;5087990;28;20027;-80
2022/07/09 04:11:47;;;;;;;5.38;2.97;;;;;;;17.49;73.98;95345.34;5070418;28;20035;-80
2022/07/09 04:14:14;;;;;;;8.18;3.22;;;;;;;17.49;74.35;95347.25;5088056;28;20035;-80
2022/07/09 04:16:40;;;;;;;5.40;3.20;;;;;;;17.42;74.78;95348.13;5087505;28;20401;-81
2022/07/09 04:19:05;;;;;;;4.22;3.10;;;;;;;17.42;74.91;95344.59;5106280;28;20028;-80
2022/07/09 04:21:31;;;;;;;6.13;3.45;;;;;;;17.41;74.64;95351.88;5087050;28;20393;-80
2022/07/09 04:23:56;;;;;;;4.25;3.50;;;;;;;17.34;74.96;95356.53;5087504;28;20019;-80
2022/07/09 04:26:23;;;;;;;3.63;3.10;;;;;;;17.49;74.67;95356.19;5087218;28;20028;-80
2022/07/09 04:28:49;;;;;;;5.38;3.42;;;;;;;17.63;74.10;95343.34;5087466;28;20404;-80
2022/07/09 04:31:15;;;;;;;4.10;3.13;;;;;;;17.67;74.41;95357.28;5088153;28;20038;-82
2022/07/09 04:33:42;;;;;;;3.72;3.30;;;;;;;17.78;73.63;95355.72;5104882;28;20030;-81
2022/07/09 04:36:08;;;;;;;5.03;3.33;;;;;;;17.58;73.94;95345.91;5105858;28;20058;-81
2022/07/09 04:38:33;;;;;;;3.90;3.10;;;;;;;17.87;73.30;95348.09;5086688;28;20031;-80
2022/07/09 04:40:58;;;;;;;3.58;3.10;;;;;;;17.82;73.08;95346.06;5105470;28;20024;-80
2022/07/09 04:43:24;;;;;;;3.97;3.58;;;;;;;17.81;73.57;95344.44;5105319;28;20027;-80
2022/07/09 04:45:50;;;;;;;6.35;3.10;;;;;;;18.06;72.40;95348.09;5105835;28;20045;-81
2022/07/09 04:48:15;;;;;;;5.15;2.85;;;;;;;18.16;72.47;95346.56;5074822;28;20027;-81
2022/07/09 04:50:41;;;;;;;4.82;2.85;;;;;;;18.31;71.72;95350.78;5108671;28;20430;-80
2022/07/09 04:53:06;;;;;;;6.72;2.95;;;;;;;18.37;71.40;95349.84;5058023;28;20378;-81
2022/07/09 04:55:32;;;;;;;4.45;2.70;;;;;;;18.37;71.52;95346.31;5090148;28;20023;-81
2022/07/09 04:57:57;;;;;;;3.53;2.90;;;;;;;18.40;71.01;95349.41;5109197;28;20054;-80
2022/07/09 05:00:22;;;;;;;3.08;2.78;;;;;;;18.35;70.91;95351.97;5108559;28;20027;-81
2022/07/09 05:02:48;;;;;;;2.92;2.63;;;;;;;18.25;71.68;95357.13;5090763;28;20122;-81
2022/07/09 05:05:13;;;;;;;2.80;2.50;;;;;;;18.29;71.32;95347.44;5090760;28;20217;-81
2022/07/09 05:07:39;;;;;;;5.00;2.70;;;;;;;18.12;71.63;95349.97;5089840;28;20032;-81
2022/07/09 05:10:05;;;;;;;3.05;2.70;;;;;;;18.30;70.96;95343.66;5074356;28;20032;-81
2022/07/09 05:12:31;;;;;;;4.47;2.83;;;;;;;18.33;71.38;95358.69;5089975;28;20115;-81
2022/07/09 05:14:56;;;;;;;4.57;2.70;;;;;;;18.32;71.04;95363.28;5074419;28;20019;-80
2022/07/09 05:17:22;;;;;;;2.97;2.60;;;;;;;18.32;71.16;95366.00;5073422;28;20035;-81
2022/07/09 05:19:48;;;;;;;5.75;2.65;;;;;;;18.39;71.08;95365.91;5073478;28;20031;-81
2022/07/09 05:22:13;;;;;;;5.50;2.90;;;;;;;18.33;70.88;95364.94;5108086;28;20034;-81
2022/07/09 05:24:40;;;;;;;3.42;2.90;;;;;;;18.28;71.10;95362.91;5089886;28;20329;-81
2022/07/09 05:27:06;;;;;;;3.92;2.50;;;;;;;18.28;71.15;95371.03;5108809;28;20027;-80
2022/07/09 05:29:31;;;;;;;3.08;2.35;;;;;;;18.15;71.80;95372.03;5072771;28;20024;-81
2022/07/09 05:31:57;;;;;;;6.53;2.97;;;;;;;17.95;72.79;95372.22;5109137;28;20023;-81
2022/07/09 05:34:23;;;;;;;4.70;3.08;;;;;;;17.96;73.08;95370.34;5089466;28;20046;-80
2022/07/09 05:36:49;;;;;;;4.68;2.60;;;;;;;17.97;72.94;95380.13;5090548;28;20844;-81
2022/07/09 05:39:14;;;;;;;3.95;2.70;;;;;;;18.01;72.33;95375.91;5096245;28;20101;-81
2022/07/09 05:41:40;;;;;;;4.40;2.53;;;;;;;17.96;72.66;95381.22;5110170;28;20020;-81
2022/07/09 05:44:05;;;;;;;4.00;2.70;;;;;;;17.98;72.70;95377.19;5056471;28;20070;-81
2022/07/09 05:46:31;;;;;;;3.85;2.60;;;;;;;18.10;72.54;95374.59;5090035;28;20444;-80
2022/07/09 05:48:56;;;;;;;4.60;3.13;;;;;;;17.92;72.69;95367.25;5075182;28;20023;-81
2022/07/09 05:51:22;;;;;;;4.95;2.60;;;;;;;17.87;73.13;95376.06;5089472;28;20024;-81
2022/07/09 05:53:47;;;;;;;3.28;2.50;;;;;;;17.90;73.69;95375.63;5108807;28;20233;-81
2022/07/09 05:56:13;;;;;;;4.03;2.67;;;;;;;17.81;73.37;95376.97;5107329;28;20425;-79
2022/07/09 05:58:38;;;;;;;3.53;2.40;;;;;;;17.77;73.27;95381.16;5073384;28;20043;-81
2022/07/09 06:01:05;;;;;;;3.95;2.55;;;;;;;17.89;73.09;95379.38;5089519;28;20551;-82
2022/07/09 06:03:30;;;;;;;4.45;2.47;;;;;;;17.69;74.02;95376.03;5089899;28;21015;-82
2022/07/09 06:05:56;;;;;;;3.55;3.10;;;;;;;17.72;74.02;95378.28;5074467;28;20026;-81
2022/07/09 06:08:21;;;;;;;3.50;2.50;;;;;;;17.87;74.10;95389.63;5113842;28;20023;-80
2022/07/09 06:10:47;;;;;;;2.83;2.35;;;;;;;17.88;73.62;95385.84;5092543;28;20027;-80
2022/07/09 06:13:12;;;;;;;4.55;3.00;;;;;;;17.82;73.88;95392.19;5089595;28;20031;-81
2022/07/09 06:15:37;;;;;;;5.18;3.53;;;;;;;17.85;73.76;95386.31;5056990;28;20505;-82
2022/07/09 06:18:03;;;;;;;3.80;2.35;;;;;;;17.78;73.60;95389.09;5106997;28;20489;-81
2022/07/09 06:20:28;;;;;;;3.83;2.42;;;;;;;17.76;73.91;95396.63;5072949;28;20104;-81
2022/07/09 06:22:54;;;;;;;3.58;2.60;;;;;;;17.64;74.66;95392.97;5071924;28;20085;-81
2022/07/09 06:25:19;;;;;;;4.82;2.75;;;;;;;17.75;74.41;95394.97;5072423;28;20020;-81
2022/07/09 06:27:45;;;;;;;3.05;2.60;;;;;;;17.70;74.56;95391.28;5107928;28;20023;-81
2022/07/09 06:30:10;;;;;;;3.35;2.70;;;;;;;17.75;74.43;95394.16;5088761;28;20023;-80
2022/07/09 06:32:35;;;;;;;3.03;2.47;;;;;;;17.65;74.46;95398.16;5108204;28;20482;-81
2022/07/09 06:35:02;;;;;;;3.33;2.70;;;;;;;17.61;74.80;95393.41;5071390;28;20371;-81
2022/07/09 06:37:28;;;;;;;3.45;2.60;;;;;;;17.60;74.83;95400.75;5089791;28;20011;-82
2022/07/09 06:39:56;;;;;;;5.03;2.88;;;;;;;17.54;75.07;95399.72;5106344;28;20041;-80
2022/07/09 06:42:22;;;;;;;3.90;2.38;;;;;;;17.61;75.06;95391.53;5089464;28;20028;-80
2022/07/09 06:44:47;;;;;;;3.33;2.85;;;;;;;17.59;75.24;95395.53;5055338;28;20027;-82
2022/07/09 06:47:13;;;;;;;4.93;3.00;;;;;;;17.64;75.17;95404.66;5087910;28;20077;-81
2022/07/09 06:49:38;;;;;;;3.63;2.90;;;;;;;17.61;75.26;95404.28;5072646;28;20054;-81
2022/07/09 06:52:04;;;;;;;4.30;3.03;;;;;;;17.69;74.65;95405.88;5087847;28;20028;-80
2022/07/09 06:54:30;;;;;;;3.38;2.90;;;;;;;17.74;74.91;95409.59;5089005;28;20041;-81
2022/07/09 06:56:58;;;;;;;3.58;2.72;;;;;;;17.79;75.27;95406.19;5087861;28;20031;-80
2022/07/09 06:59:24;;;;;;;3.35;2.97;;;;;;;17.82;75.13;95407.63;5089468;28;20332;-82
2022/07/09 07:01:49;;;;;;;3.17;2.88;;;;;;;17.91;74.69;95404.41;5088249;28;20051;-83
2022/07/09 07:04:15;;;;;;;6.65;3.47;;;;;;;17.84;75.28;95402.81;5067944;28;20051;-82
2022/07/09 07:06:41;;;;;;;5.45;3.20;;;;;;;17.97;74.99;95404.56;5085161;28;20089;-82
2022/07/09 07:09:07;;;;;;;3.78;3.15;;;;;;;18.02;75.19;95402.00;5085840;28;20076;-81
2022/07/09 07:11:32;;;;;;;3.50;3.13;;;;;;;17.92;75.27;95403.38;5068620;28;20025;-80
2022/07/09 07:13:57;;;;;;;3.53;3.20;;;;;;;17.92;75.46;95400.66;5085872;28;20024;-81
2022/07/09 07:16:23;;;;;;;3.42;3.13;;;;;;;17.93;74.97;95409.59;5086490;28;20016;-81
2022/07/09 07:18:48;;;;;;;3.42;3.08;;;;;;;17.92;75.18;95411.50;5085604;28;20035;-84
2022/07/09 07:21:14;;;;;;;4.22;3.13;;;;;;;18.09;74.81;95404.66;5086172;28;20105;-82
2022/07/09 07:23:39;;;;;;;3.72;3.28;;;;;;;17.96;74.78;95408.34;5085927;28;20027;-80
2022/07/09 07:26:05;;;;;;;4.38;3.60;;;;;;;17.89;74.90;95406.50;5085546;28;20034;-82
2022/07/09 07:28:30;;;;;;;4.00;2.67;;;;;;;17.97;74.21;95404.56;5086523;28;20024;-81
2022/07/09 07:30:56;;;;;;;4.40;3.10;;;;;;;18.08;73.98;95408.41;5085269;28;20024;-81
2022/07/09 07:33:22;;;;;;;3.35;2.90;;;;;;;18.15;73.92;95401.88;5085002;28;20579;-83
2022/07/09 07:35:47;;;;;;;4.75;3.00;;;;;;;18.13;73.00;95398.59;5083597;28;20027;-82
2022/07/09 07:38:13;;;;;;;4.85;3.33;;;;;;;18.13;73.20;95395.88;5067743;28;20024;-81
2022/07/09 07:40:38;;;;;;;4.72;3.08;;;;;;;18.22;73.03;95396.38;5067087;28;20016;-81
2022/07/09 07:43:04;;;;;;;3.40;2.70;;;;;;;18.24;73.59;95401.59;5084513;28;20020;-80
2022/07/09 07:45:30;;;;;;;3.20;2.60;;;;;;;18.29;72.68;95393.59;5084001;28;20094;-81
2022/07/09 07:47:56;;;;;;;3.85;2.95;;;;;;;18.38;71.97;95396.81;5086309;28;20642;-81
2022/07/09 07:50:22;;;;;;;3.92;2.60;;;;;;;18.38;72.20;95397.66;5052007;28;20031;-82
2022/07/09 07:52:47;;;;;;;2.88;2.45;;;;;;;18.39;72.55;95406.63;5085046;28;20020;-81
2022/07/09 07:55:13;;;;;;;3.20;2.60;;;;;;;18.30;72.53;95402.56;5051292;28;20073;-82
2022/07/09 07:57:38;;;;;;;4.60;2.90;;;;;;;18.26;73.17;95410.34;5084747;28;20031;-83
2022/07/09 08:00:04;;;;;;;3.55;2.53;;;;;;;18.31;72.42;95405.06;5084421;28;20437;-81
2022/07/09 08:02:30;;;;;;;4.90;3.10;;;;;;;18.18;72.72;95403.34;5085917;28;20031;-80
2022/07/09 08:04:56;;;;;;;4.90;2.70;;;;;;;18.32;72.01;95406.72;5087569;28;20019;-80
2022/07/09 08:07:21;;;;;;;3.22;2.63;;;;;;;18.30;71.96;95395.25;5105883;28;20025;-81
2022/07/09 08:09:47;;;;;;;3.28;2.92;;;;;;;18.33;72.69;95393.97;5086915;28;20505;-81
2022/07/09 08:12:12;;;;;;;3.83;2.80;;;;;;;18.47;72.66;95400.91;5106284;28;20028;-81
2022/07/09 08:14:38;;;;;;;5.32;3.05;;;;;;;18.45;72.21;95402.16;5069436;28;20015;-82
2022/07/09 08:17:03;;;;;;;3.47;2.83;;;;;;;18.58;71.20;95393.88;5106131;28;20027;-81
2022/07/09 08:19:29;;;;;;;4.10;2.85;;;;;;;18.68;71.64;95393.31;5104693;28;20023;-82
2022/07/09 08:21:54;;;;;;;4.22;3.00;;;;;;;18.59;71.55;95402.81;5086807;28;20028;-82
2022/07/09 08:24:20;;;;;;;2.95;2.65;;;;;;;18.64;71.17;95401.09;5087340;28;20015;-81
2022/07/09 08:26:45;;;;;;;4.28;3.20;;;;;;;18.71;71.91;95400.19;5104948;28;20038;-81
2022/07/09 08:29:11;;;;;;;3.80;3.40;;;;;;;18.81;71.77;95399.63;5087732;28;20027;-80
2022/07/09 08:31:36;;;;;;;3.60;2.80;;;;;;;18.73;71.68;95395.34;5086033;28;20044;-79
2022/07/09 08:34:01;;;;;;;6.20;3.10;;;;;;;18.67;71.47;95404.44;5087725;28;20020;-80
2022/07/09 08:36:27;;;;;;;6.03;3.67;;;;;;;18.74;71.06;95399.72;5086087;28;20035;-81
2022/07/09 08:38:52;;;;;;;3.17;2.88;;;;;;;18.72;71.14;95390.97;5070331;28;20353;-82
2022/07/09 08:41:19;;;;;;;4.78;3.28;;;;;;;18.74;70.70;95399.72;5086712;28;20028;-80
2022/07/09 08:43:48;;;;;;;3.45;3.15;;;;;;;18.80;71.40;95398.78;5053658;28;20494;-82
2022/07/09 08:46:13;;;;;;;3.83;3.13;;;;;;;18.87;70.91;95401.44;5070946;28;20023;-81
2022/07/09 08:48:39;;;;;;;4.00;3.10;;;;;;;18.83;71.39;95403.75;5086296;28;20024;-81
2022/07/09 08:51:04;;;;;;;3.72;2.90;;;;;;;18.77;70.68;95410.97;5074301;28;20027;-83
2022/07/09 08:53:30;;;;;;;3.70;3.20;;;;;;;18.72;71.09;95412.69;5072248;28;20077;-82
2022/07/09 08:55:56;;;;;;;4.30;3.20;;;;;;;18.70;71.01;95409.41;5087915;28;20051;-81
2022/07/09 08:58:22;;;;;;;4.65;3.50;;;;;;;18.68;71.66;95406.91;5069474;28;20465;-82
2022/07/09 09:00:48;;;;;;;4.07;3.47;;;;;;;18.61;72.12;95415.13;5086926;28;20032;-81
2022/07/09 09:03:13;;;;;;;3.72;3.33;;;;;;;18.71;71.80;95409.16;5087004;28;20035;-82
2022/07/09 09:05:39;;;;;;;4.35;2.90;;;;;;;18.80;72.29;95411.56;5086427;28;20028;-81
2022/07/09 09:08:19;;;;;;;3.78;3.30;;;;;;;18.88;71.54;95411.22;5070434;28;20077;-82
2022/07/09 09:10:47;;;;;;;5.38;3.72;;;;;;;19.14;70.02;95410.06;5104351;28;20016;-82
2022/07/09 09:13:15;;;;;;;4.72;3.60;;;;;;;19.05;71.91;95414.13;5105411;28;20413;-81
2022/07/09 09:15:41;;;;;;;3.28;2.97;;;;;;;18.92;71.61;95406.16;5069080;28;20024;-81
2022/07/09 09:18:06;;;;;;;6.50;3.78;;;;;;;18.95;71.11;95411.13;5105193;28;20085;-83
2022/07/09 09:20:32;;;;;;;5.85;3.72;;;;;;;19.02;72.16;95411.88;5086351;28;20028;-81
2022/07/09 09:23:02;;;;;;;3.53;3.15;;;;;;;19.07;70.91;95414.72;5052428;28;20024;-81
2022/07/09 09:25:27;;;;;;;4.63;3.55;;;;;;;18.92;70.77;95414.31;5087629;28;20023;-81
2022/07/09 09:27:57;;;;;;;3.88;3.45;;;;;;;19.12;70.79;95423.03;5092056;28;20026;-81
2022/07/09 09:30:23;;;;;;;4.10;3.40;;;;;;;19.20;69.63;95412.91;5057708;28;20028;-81
2022/07/09 09:33:03;;;;;;;4.00;3.60;;;;;;;19.21;69.76;95415.41;5069189;28;20095;-82
2022/07/09 09:35:42;;;;;;;3.97;3.58;;;;;;;19.31;68.67;95414.84;5074009;28;20024;-82
2022/07/09 09:38:07;;;;;;;4.30;3.60;;;;;;;19.25;66.40;95411.13;5090531;28;20076;-83
2022/07/09 09:40:35;;;;;;;4.18;3.40;;;;;;;19.36;65.70;95417.66;5108647;28;20024;-80
2022/07/09 09:43:01;;;;;;;4.32;3.70;;;;;;;19.34;65.80;95417.09;5074233;28;20488;-82
2022/07/09 09:45:27;;;;;;;6.57;3.53;;;;;;;19.45;65.00;95414.59;5073212;28;20396;-82
2022/07/09 09:47:52;;;;;;;3.35;2.70;;;;;;;19.42;65.33;95418.63;5090507;28;20490;-82
2022/07/09 09:50:19;;;;;;;3.58;2.95;;;;;;;19.18;66.14;95410.44;5072848;28;20034;-82
2022/07/09 09:52:48;;;;;;;4.07;2.70;;;;;;;19.45;65.19;95414.59;5057161;28;20445;-81
2022/07/09 09:55:15;;;;;;;4.25;3.08;;;;;;;19.41;66.09;95418.88;5056748;28;20024;-81
2022/07/09 09:57:40;;;;;;;4.22;2.85;;;;;;;19.39;67.71;95419.91;5108359;28;20023;-83
2022/07/09 10:00:06;;;;;;;3.20;2.90;;;;;;;19.37;69.53;95418.50;5073629;28;20038;-82
2022/07/09 10:02:32;;;;;;;3.53;2.63;;;;;;;19.24;70.48;95424.97;5089244;28;20039;-82
2022/07/09 10:04:57;;;;;;;4.82;2.83;;;;;;;19.29;69.84;95421.53;5108687;28;20026;-82
2022/07/09 10:07:23;;;;;;;3.03;2.60;;;;;;;19.36;70.61;95431.25;5072445;28;20027;-82
2022/07/09 10:09:56;;;;;;;3.58;2.80;;;;;;;19.29;70.60;95416.94;5056873;28;20020;-82
2022/07/09 10:12:34;;;;;;;5.78;3.15;;;;;;;19.17;71.72;95421.53;5072418;28;20106;-81
2022/07/09 10:15:00;;;;;;;7.03;3.15;;;;;;;19.11;71.88;95418.69;5107457;28;20045;-81
2022/07/09 10:17:26;;;;;;;4.68;3.30;;;;;;;19.42;71.16;95420.50;5090114;28;20504;-82
2022/07/09 10:19:55;;;;;;;4.35;2.75;;;;;;;19.56;71.45;95432.84;5071757;28;20050;-82
2022/07/09 10:22:41;;;;;;;5.53;3.38;;;;;;;19.62;70.42;95429.19;5108211;28;20019;-82
2022/07/09 10:25:08;;;;;;;3.28;2.78;;;;;;;19.08;71.95;95429.97;5106689;28;20034;-82
2022/07/09 10:27:47;;;;;;;3.28;2.28;;;;;;;18.61;72.64;95427.88;5107906;28;20024;-80
2022/07/09 10:30:33;;;;;;;4.18;2.17;;;;;;;18.58;72.62;95434.59;5089407;28;20028;-82
2022/07/09 10:33:05;;;;;;;3.58;2.13;;;;;;;18.40;72.96;95425.41;5087809;28;20074;-82
2022/07/09 10:35:31;;;;;;;2.10;1.67;;;;;;;18.16;72.92;95432.56;5089616;28;20154;-81
2022/07/09 10:37:57;;;;;;;2.25;1.60;;;;;;;17.96;73.34;95444.41;5071435;28;20062;-81
2022/07/09 10:40:23;;;;;;;4.45;1.90;;;;;;;17.98;73.24;95436.06;5072682;28;20076;-80
2022/07/09 10:43:02;;;;;;;2.63;1.73;;;;;;;17.86;73.62;95435.97;5055777;28;20062;-80
2022/07/09 10:45:31;;;;;;;2.38;1.60;;;;;;;17.89;74.00;95443.66;5073085;28;20397;-80
2022/07/09 10:48:00;;;;;;;4.43;2.20;;;;;;;17.97;73.93;95440.69;5091350;28;20027;-81
2022/07/09 10:50:27;;;;;;;3.17;1.80;;;;;;;18.03;74.43;95441.66;5072246;28;20564;-81
2022/07/09 10:52:53;;;;;;;1.88;1.40;;;;;;;17.79;73.50;95433.31;5089343;28;20050;-80
2022/07/09 10:55:24;;;;;;;3.15;1.67;;;;;;;17.79;74.48;95438.75;5071300;28;20024;-80
2022/07/09 10:57:49;;;;;;;2.50;1.77;;;;;;;17.66;74.37;95435.09;5072337;28;20061;-81
2022/07/09 11:00:19;;;;;;;4.57;1.83;;;;;;;17.78;73.52;95434.38;5088416;28;20032;-82
2022/07/09 11:03:03;;;;;;;4.22;1.45;;;;;;;17.72;73.59;95433.38;5071606;28;20047;-81
2022/07/09 11:05:45;;;;;;;2.33;1.80;;;;;;;17.71;73.82;95436.31;5090814;28;20030;-82
2022/07/09 11:08:10;;;;;;;3.45;1.60;;;;;;;17.66;73.99;95435.09;5087453;28;20015;-81
2022/07/09 11:10:37;;;;;;;2.72;1.70;;;;;;;17.79;72.54;95444.16;5072119;28;20055;-81
2022/07/09 11:13:03;;;;;;;2.67;1.80;;;;;;;17.79;72.96;95434.16;5106735;28;20518;-80
2022/07/09 11:15:30;;;;;;;2.97;1.95;;;;;;;17.88;72.70;95437.41;5088425;28;20077;-81
2022/07/09 11:18:09;;;;;;;2.33;1.58;;;;;;;18.00;72.13;95442.09;5055437;28;20108;-82
2022/07/09 11:20:44;;;;;;;2.50;1.63;;;;;;;17.90;72.12;95448.88;5087591;28;20396;-80
2022/07/09 11:23:09;;;;;;;2.47;1.75;;;;;;;17.84;72.63;95449.75;5088730;28;20561;-83
2022/07/09 11:25:35;;;;;;;3.38;2.03;;;;;;;17.83;72.99;95448.09;5105717;28;20080;-81
2022/07/09 11:28:00;;;;;;;2.90;1.80;;;;;;;17.70;73.27;95435.47;5106598;28;20026;-81
2022/07/09 11:30:28;;;;;;;2.60;2.00;;;;;;;17.61;73.14;95447.66;5070387;28;20042;-82